sensor_id;sensor_type;location;lat;lon;timestamp;temperature;humidity
19862;DHT22;10093;48.148;8.542;2023-08-01T00:02:06;17.60;99.90
19862;DHT22;10093;48.148;8.542;2023-08-01T00:04:32;17.60;99.90
19862;DHT22;10093;48.148;8.542;2023-08-01T00:06:57;17.60;99.90
19862;DHT22;10093;48.148;8.542;2023-08-01T00:09:23;17.50;99.90
19862;DHT22;10093;48.148;8.542;2023-08-01T00:11:49;17.50;99.90
19862;DHT22;10093;48.148;8.542;2023-08-01T00:14:14;17.40;99.90
19862;DHT22;10093;48.148;8.542;2023-08-01T00:16:40;17.40;99.90
19862;DHT22;10093;48.148;8.542;2023-08-01T00:19:05;17.40;99.90
19862;DHT22;10093;48.148;8.542;2023-08-01T00:21:31;17.40;99.90
19862;DHT22;10093;48.148;8.542;2023-08-01T00:23:57;17.30;99.90
19862;DHT22;10093;48.148;8.542;2023-08-01T00:26:23;17.30;99.90
19862;DHT22;10093;48.148;8.542;2023-08-01T00:28:49;17.30;99.90
19862;DHT22;10093;48.148;8.542;2023-08-01T00:31:14;17.30;99.90
19862;DHT22;10093;48.148;8.542;2023-08-01T00:33:40;17.30;99.90
19862;DHT22;10093;48.148;8.542;2023-08-01T00:36:06;17.30;99.90
19862;DHT22;10093;48.148;8.542;2023-08-01T00:38:36;17.30;99.90
19862;DHT22;10093;48.148;8.542;2023-08-01T00:41:02;17.30;99.90
19862;DHT22;10093;48.148;8.542;2023-08-01T00:43:28;17.30;99.90
19862;DHT22;10093;48.148;8.542;2023-08-01T00:45:55;17.20;99.90
19862;DHT22;10093;48.148;8.542;2023-08-01T00:48:23;17.20;99.90
19862;DHT22;10093;48.148;8.542;2023-08-01T00:50:49;17.20;99.90
19862;DHT22;10093;48.148;8.542;2023-08-01T00:53:16;17.30;99.90
19862;DHT22;10093;48.148;8.542;2023-08-01T00:55:43;17.40;99.90
19862;DHT22;10093;48.148;8.542;2023-08-01T00:58:09;17.60;99.90
19862;DHT22;10093;48.148;8.542;2023-08-01T01:00:34;17.60;99.90
19862;DHT22;10093;48.148;8.542;2023-08-01T01:03:01;17.60;99.90
19862;DHT22;10093;48.148;8.542;2023-08-01T01:05:27;17.70;99.90
19862;DHT22;10093;48.148;8.542;2023-08-01T01:07:57;17.60;99.90
19862;DHT22;10093;48.148;8.542;2023-08-01T01:10:23;17.50;99.90
19862;DHT22;10093;48.148;8.542;2023-08-01T01:12:49;17.40;99.90
19862;DHT22;10093;48.148;8.542;2023-08-01T01:15:15;17.20;99.90
19862;DHT22;10093;48.148;8.542;2023-08-01T01:17:41;17.00;99.90
19862;DHT22;10093;48.148;8.542;2023-08-01T01:20:07;16.90;99.90
19862;DHT22;10093;48.148;8.542;2023-08-01T01:22:33;16.80;99.90
19862;DHT22;10093;48.148;8.542;2023-08-01T01:25:00;16.80;99.90
19862;DHT22;10093;48.148;8.542;2023-08-01T01:27:27;16.70;99.90
19862;DHT22;10093;48.148;8.542;2023-08-01T01:29:54;16.70;99.90
19862;DHT22;10093;48.148;8.542;2023-08-01T01:32:20;16.60;99.90
19862;DHT22;10093;48.148;8.542;2023-08-01T01:34:47;16.40;99.90
19862;DHT22;10093;48.148;8.542;2023-08-01T01:37:12;16.40;99.90
19862;DHT22;10093;48.148;8.542;2023-08-01T01:39:38;16.30;99.90
19862;DHT22;10093;48.148;8.542;2023-08-01T01:42:04;16.20;99.90
19862;DHT22;10093;48.148;8.542;2023-08-01T01:44:30;16.20;99.90
19862;DHT22;10093;48.148;8.542;2023-08-01T01:46:55;16.20;99.90
19862;DHT22;10093;48.148;8.542;2023-08-01T01:49:21;16.20;99.90
19862;DHT22;10093;48.148;8.542;2023-08-01T01:51:46;16.20;99.90
19862;DHT22;10093;48.148;8.542;2023-08-01T01:54:12;16.20;99.90
19862;DHT22;10093;48.148;8.542;2023-08-01T01:56:37;16.20;99.90
19862;DHT22;10093;48.148;8.542;2023-08-01T01:59:03;16.20;99.90
19862;DHT22;10093;48.148;8.542;2023-08-01T02:01:29;16.20;99.90
19862;DHT22;10093;48.148;8.542;2023-08-01T02:03:54;16.10;99.90
19862;DHT22;10093;48.148;8.542;2023-08-01T02:06:20;16.00;99.90
19862;DHT22;10093;48.148;8.542;2023-08-01T02:08:45;16.10;99.90
19862;DHT22;10093;48.148;8.542;2023-08-01T02:11:11;16.00;99.90
19862;DHT22;10093;48.148;8.542;2023-08-01T02:13:36;16.10;99.90
19862;DHT22;10093;48.148;8.542;2023-08-01T02:16:02;16.30;99.90
19862;DHT22;10093;48.148;8.542;2023-08-01T02:18:28;16.50;99.90
19862;DHT22;10093;48.148;8.542;2023-08-01T02:20:53;16.70;99.90
19862;DHT22;10093;48.148;8.542;2023-08-01T02:23:19;16.80;99.90
19862;DHT22;10093;48.148;8.542;2023-08-01T02:25:44;16.90;99.90
19862;DHT22;10093;48.148;8.542;2023-08-01T02:28:10;16.90;99.90
19862;DHT22;10093;48.148;8.542;2023-08-01T02:30:37;17.00;99.90
19862;DHT22;10093;48.148;8.542;2023-08-01T02:33:03;17.00;99.90
19862;DHT22;10093;48.148;8.542;2023-08-01T02:35:29;17.00;99.90
19862;DHT22;10093;48.148;8.542;2023-08-01T02:37:55;17.00;99.90
19862;DHT22;10093;48.148;8.542;2023-08-01T02:40:21;17.10;99.90
19862;DHT22;10093;48.148;8.542;2023-08-01T02:42:47;17.10;99.90
19862;DHT22;10093;48.148;8.542;2023-08-01T02:45:12;17.10;99.90
19862;DHT22;10093;48.148;8.542;2023-08-01T02:47:38;17.20;99.90
19862;DHT22;10093;48.148;8.542;2023-08-01T02:50:04;17.20;99.90
19862;DHT22;10093;48.148;8.542;2023-08-01T02:52:30;17.30;99.90
19862;DHT22;10093;48.148;8.542;2023-08-01T02:54:56;17.30;99.90
19862;DHT22;10093;48.148;8.542;2023-08-01T02:57:21;17.40;99.90
19862;DHT22;10093;48.148;8.542;2023-08-01T02:59:47;17.40;99.90
19862;DHT22;10093;48.148;8.542;2023-08-01T03:02:13;17.40;99.90
19862;DHT22;10093;48.148;8.542;2023-08-01T03:04:38;17.50;99.90
19862;DHT22;10093;48.148;8.542;2023-08-01T03:07:04;17.50;99.90
19862;DHT22;10093;48.148;8.542;2023-08-01T03:09:29;17.60;99.90
19862;DHT22;10093;48.148;8.542;2023-08-01T03:11:55;17.70;99.90
19862;DHT22;10093;48.148;8.542;2023-08-01T03:14:21;17.80;99.90
19862;DHT22;10093;48.148;8.542;2023-08-01T03:16:46;17.70;99.90
19862;DHT22;10093;48.148;8.542;2023-08-01T03:19:12;17.80;99.90
19862;DHT22;10093;48.148;8.542;2023-08-01T03:21:38;17.80;99.90
19862;DHT22;10093;48.148;8.542;2023-08-01T03:24:04;17.80;99.90
19862;DHT22;10093;48.148;8.542;2023-08-01T03:26:37;17.80;99.90
19862;DHT22;10093;48.148;8.542;2023-08-01T03:29:02;17.80;99.90
19862;DHT22;10093;48.148;8.542;2023-08-01T03:31:29;17.80;99.90
19862;DHT22;10093;48.148;8.542;2023-08-01T03:33:55;17.90;99.90
19862;DHT22;10093;48.148;8.542;2023-08-01T03:36:20;17.90;99.90
19862;DHT22;10093;48.148;8.542;2023-08-01T03:38:46;17.80;99.90
19862;DHT22;10093;48.148;8.542;2023-08-01T03:41:12;17.80;99.90
19862;DHT22;10093;48.148;8.542;2023-08-01T03:43:38;17.70;99.90
19862;DHT22;10093;48.148;8.542;2023-08-01T03:46:03;17.70;99.90
19862;DHT22;10093;48.148;8.542;2023-08-01T03:48:29;17.70;99.90
19862;DHT22;10093;48.148;8.542;2023-08-01T03:50:54;17.70;99.90
19862;DHT22;10093;48.148;8.542;2023-08-01T03:53:23;17.60;99.90
19862;DHT22;10093;48.148;8.542;2023-08-01T03:55:48;17.50;99.90
19862;DHT22;10093;48.148;8.542;2023-08-01T03:58:14;17.40;99.90
19862;DHT22;10093;48.148;8.542;2023-08-01T04:00:40;17.10;99.90
19862;DHT22;10093;48.148;8.542;2023-08-01T04:03:06;16.90;99.90
19862;DHT22;10093;48.148;8.542;2023-08-01T04:05:31;16.70;99.90
19862;DHT22;10093;48.148;8.542;2023-08-01T04:07:57;16.60;99.90
19862;DHT22;10093;48.148;8.542;2023-08-01T04:10:23;16.60;99.90
19862;DHT22;10093;48.148;8.542;2023-08-01T04:12:49;16.60;99.90
19862;DHT22;10093;48.148;8.542;2023-08-01T04:15:15;16.50;99.90
19862;DHT22;10093;48.148;8.542;2023-08-01T04:17:40;16.50;99.90
19862;DHT22;10093;48.148;8.542;2023-08-01T04:20:07;16.50;99.90
19862;DHT22;10093;48.148;8.542;2023-08-01T04:22:32;16.50;99.90
19862;DHT22;10093;48.148;8.542;2023-08-01T04:24:58;16.50;99.90
19862;DHT22;10093;48.148;8.542;2023-08-01T04:27:24;16.50;99.90
19862;DHT22;10093;48.148;8.542;2023-08-01T04:29:49;16.50;99.90
19862;DHT22;10093;48.148;8.542;2023-08-01T04:32:15;16.50;99.90
19862;DHT22;10093;48.148;8.542;2023-08-01T04:34:44;16.50;99.90
19862;DHT22;10093;48.148;8.542;2023-08-01T04:37:09;16.50;99.90
19862;DHT22;10093;48.148;8.542;2023-08-01T04:39:36;16.40;99.90
19862;DHT22;10093;48.148;8.542;2023-08-01T04:42:01;16.40;99.90
19862;DHT22;10093;48.148;8.542;2023-08-01T04:44:27;16.40;99.90
19862;DHT22;10093;48.148;8.542;2023-08-01T04:46:53;16.30;99.90
19862;DHT22;10093;48.148;8.542;2023-08-01T04:49:18;16.20;99.90
19862;DHT22;10093;48.148;8.542;2023-08-01T04:51:44;16.10;99.90
19862;DHT22;10093;48.148;8.542;2023-08-01T04:54:10;16.00;99.90
19862;DHT22;10093;48.148;8.542;2023-08-01T04:56:36;15.80;99.90
19862;DHT22;10093;48.148;8.542;2023-08-01T04:59:01;15.70;99.90
19862;DHT22;10093;48.148;8.542;2023-08-01T05:01:27;15.60;99.90
19862;DHT22;10093;48.148;8.542;2023-08-01T05:03:53;15.50;99.90
19862;DHT22;10093;48.148;8.542;2023-08-01T05:06:18;15.30;99.90
19862;DHT22;10093;48.148;8.542;2023-08-01T05:08:44;15.30;99.90
19862;DHT22;10093;48.148;8.542;2023-08-01T05:11:10;15.20;99.90
19862;DHT22;10093;48.148;8.542;2023-08-01T05:13:35;15.10;99.90
19862;DHT22;10093;48.148;8.542;2023-08-01T05:16:01;15.10;99.90
19862;DHT22;10093;48.148;8.542;2023-08-01T05:18:28;15.00;99.90
19862;DHT22;10093;48.148;8.542;2023-08-01T05:20:53;14.90;99.90
19862;DHT22;10093;48.148;8.542;2023-08-01T05:23:19;14.90;99.90
19862;DHT22;10093;48.148;8.542;2023-08-01T05:25:45;14.90;99.90
19862;DHT22;10093;48.148;8.542;2023-08-01T05:28:10;14.80;99.90
19862;DHT22;10093;48.148;8.542;2023-08-01T05:30:37;14.80;99.90
19862;DHT22;10093;48.148;8.542;2023-08-01T05:33:03;14.80;99.90
19862;DHT22;10093;48.148;8.542;2023-08-01T05:35:28;14.80;99.90
19862;DHT22;10093;48.148;8.542;2023-08-01T05:37:54;14.80;99.90
19862;DHT22;10093;48.148;8.542;2023-08-01T05:40:19;14.90;99.90
19862;DHT22;10093;48.148;8.542;2023-08-01T05:42:45;14.80;99.90
19862;DHT22;10093;48.148;8.542;2023-08-01T05:45:10;14.90;99.90
19862;DHT22;10093;48.148;8.542;2023-08-01T05:47:37;15.00;99.90
19862;DHT22;10093;48.148;8.542;2023-08-01T05:50:03;15.00;99.90
19862;DHT22;10093;48.148;8.542;2023-08-01T05:52:30;15.10;99.90
19862;DHT22;10093;48.148;8.542;2023-08-01T05:54:55;15.10;99.90
19862;DHT22;10093;48.148;8.542;2023-08-01T05:57:21;15.10;99.90
19862;DHT22;10093;48.148;8.542;2023-08-01T05:59:46;15.10;99.90
19862;DHT22;10093;48.148;8.542;2023-08-01T06:02:12;15.20;99.90
19862;DHT22;10093;48.148;8.542;2023-08-01T06:04:38;15.30;99.90
19862;DHT22;10093;48.148;8.542;2023-08-01T06:07:04;15.30;99.90
19862;DHT22;10093;48.148;8.542;2023-08-01T06:09:30;15.30;99.90
19862;DHT22;10093;48.148;8.542;2023-08-01T06:11:56;15.30;99.90
19862;DHT22;10093;48.148;8.542;2023-08-01T06:14:21;15.30;99.90
19862;DHT22;10093;48.148;8.542;2023-08-01T06:16:47;15.30;99.90
19862;DHT22;10093;48.148;8.542;2023-08-01T06:19:12;15.30;99.90
19862;DHT22;10093;48.148;8.542;2023-08-01T06:21:38;15.40;99.90
19862;DHT22;10093;48.148;8.542;2023-08-01T06:24:04;15.40;99.90
19862;DHT22;10093;48.148;8.542;2023-08-01T06:26:29;15.50;99.90
19862;DHT22;10093;48.148;8.542;2023-08-01T06:28:55;15.60;99.90
19862;DHT22;10093;48.148;8.542;2023-08-01T06:31:21;15.60;99.90
19862;DHT22;10093;48.148;8.542;2023-08-01T06:33:47;15.70;99.90
19862;DHT22;10093;48.148;8.542;2023-08-01T06:36:12;15.70;99.90
19862;DHT22;10093;48.148;8.542;2023-08-01T06:38:38;15.80;99.90
19862;DHT22;10093;48.148;8.542;2023-08-01T06:41:04;16.00;99.90
19862;DHT22;10093;48.148;8.542;2023-08-01T06:43:30;16.00;99.90
19862;DHT22;10093;48.148;8.542;2023-08-01T06:45:55;16.10;99.90
19862;DHT22;10093;48.148;8.542;2023-08-01T06:48:21;16.20;99.90
19862;DHT22;10093;48.148;8.542;2023-08-01T06:50:46;16.20;99.90
19862;DHT22;10093;48.148;8.542;2023-08-01T06:53:12;16.40;99.90
19862;DHT22;10093;48.148;8.542;2023-08-01T06:55:38;16.50;99.90
19862;DHT22;10093;48.148;8.542;2023-08-01T06:58:03;16.50;99.90
19862;DHT22;10093;48.148;8.542;2023-08-01T07:00:29;16.70;99.90
19862;DHT22;10093;48.148;8.542;2023-08-01T07:02:55;16.80;99.90
19862;DHT22;10093;48.148;8.542;2023-08-01T07:05:21;16.80;99.90
19862;DHT22;10093;48.148;8.542;2023-08-01T07:07:47;16.90;99.90
19862;DHT22;10093;48.148;8.542;2023-08-01T07:10:13;17.10;99.90
19862;DHT22;10093;48.148;8.542;2023-08-01T07:12:38;17.10;99.90
19862;DHT22;10093;48.148;8.542;2023-08-01T07:15:04;17.10;99.90
19862;DHT22;10093;48.148;8.542;2023-08-01T07:17:30;17.10;99.90
19862;DHT22;10093;48.148;8.542;2023-08-01T07:19:55;17.10;99.90
19862;DHT22;10093;48.148;8.542;2023-08-01T07:22:21;17.50;99.90
19862;DHT22;10093;48.148;8.542;2023-08-01T07:24:47;18.60;99.90
19862;DHT22;10093;48.148;8.542;2023-08-01T07:27:12;19.50;99.90
19862;DHT22;10093;48.148;8.542;2023-08-01T07:29:38;20.10;99.90
19862;DHT22;10093;48.148;8.542;2023-08-01T07:32:04;19.20;99.90
19862;DHT22;10093;48.148;8.542;2023-08-01T07:34:30;18.10;99.90
19862;DHT22;10093;48.148;8.542;2023-08-01T07:36:55;17.80;99.90
19862;DHT22;10093;48.148;8.542;2023-08-01T07:39:21;17.80;99.90
19862;DHT22;10093;48.148;8.542;2023-08-01T07:41:47;18.00;99.90
19862;DHT22;10093;48.148;8.542;2023-08-01T07:44:12;18.10;99.90
19862;DHT22;10093;48.148;8.542;2023-08-01T07:46:38;17.60;99.90
19862;DHT22;10093;48.148;8.542;2023-08-01T07:49:04;17.20;99.90
19862;DHT22;10093;48.148;8.542;2023-08-01T07:51:29;16.80;99.90
19862;DHT22;10093;48.148;8.542;2023-08-01T07:53:55;16.60;99.90
19862;DHT22;10093;48.148;8.542;2023-08-01T07:56:20;16.50;99.90
19862;DHT22;10093;48.148;8.542;2023-08-01T07:58:46;16.30;99.90
19862;DHT22;10093;48.148;8.542;2023-08-01T08:01:12;16.40;99.90
19862;DHT22;10093;48.148;8.542;2023-08-01T08:03:37;16.20;99.90
19862;DHT22;10093;48.148;8.542;2023-08-01T08:06:03;16.10;99.90
19862;DHT22;10093;48.148;8.542;2023-08-01T08:08:31;15.90;99.90
19862;DHT22;10093;48.148;8.542;2023-08-01T08:10:58;15.70;99.90
19862;DHT22;10093;48.148;8.542;2023-08-01T08:13:24;15.50;99.90
19862;DHT22;10093;48.148;8.542;2023-08-01T08:15:50;15.40;99.90
19862;DHT22;10093;48.148;8.542;2023-08-01T08:18:16;15.30;99.90
19862;DHT22;10093;48.148;8.542;2023-08-01T08:20:44;15.20;99.90
19862;DHT22;10093;48.148;8.542;2023-08-01T08:23:11;15.10;99.90
19862;DHT22;10093;48.148;8.542;2023-08-01T08:25:39;15.00;99.90
19862;DHT22;10093;48.148;8.542;2023-08-01T08:28:05;15.00;99.90
19862;DHT22;10093;48.148;8.542;2023-08-01T08:30:31;15.00;99.90
19862;DHT22;10093;48.148;8.542;2023-08-01T08:32:57;15.00;99.90
19862;DHT22;10093;48.148;8.542;2023-08-01T08:35:24;15.00;99.90
19862;DHT22;10093;48.148;8.542;2023-08-01T08:37:49;15.00;99.90
19862;DHT22;10093;48.148;8.542;2023-08-01T08:40:15;15.10;99.90
19862;DHT22;10093;48.148;8.542;2023-08-01T08:42:41;15.10;99.90
19862;DHT22;10093;48.148;8.542;2023-08-01T08:45:08;15.20;99.90
19862;DHT22;10093;48.148;8.542;2023-08-01T08:47:36;15.10;99.90
19862;DHT22;10093;48.148;8.542;2023-08-01T08:50:03;15.10;99.90
19862;DHT22;10093;48.148;8.542;2023-08-01T08:52:30;15.20;99.90
19862;DHT22;10093;48.148;8.542;2023-08-01T08:54:56;15.30;99.90
19862;DHT22;10093;48.148;8.542;2023-08-01T08:57:22;15.30;99.90
19862;DHT22;10093;48.148;8.542;2023-08-01T08:59:49;15.30;99.90
19862;DHT22;10093;48.148;8.542;2023-08-01T09:02:15;15.40;99.90
19862;DHT22;10093;48.148;8.542;2023-08-01T09:04:42;15.60;99.90
19862;DHT22;10093;48.148;8.542;2023-08-01T09:07:09;15.50;99.90
19862;DHT22;10093;48.148;8.542;2023-08-01T09:09:37;15.60;99.90
19862;DHT22;10093;48.148;8.542;2023-08-01T09:12:03;15.70;99.90
19862;DHT22;10093;48.148;8.542;2023-08-01T09:14:29;15.90;99.90
19862;DHT22;10093;48.148;8.542;2023-08-01T09:17:04;15.80;99.90
19862;DHT22;10093;48.148;8.542;2023-08-01T09:19:30;15.80;99.90
19862;DHT22;10093;48.148;8.542;2023-08-01T09:21:55;15.80;99.90
19862;DHT22;10093;48.148;8.542;2023-08-01T09:24:21;15.60;99.90
19862;DHT22;10093;48.148;8.542;2023-08-01T09:26:48;15.70;99.90
19862;DHT22;10093;48.148;8.542;2023-08-01T09:29:16;15.90;99.90
19862;DHT22;10093;48.148;8.542;2023-08-01T09:31:43;15.80;99.90
19862;DHT22;10093;48.148;8.542;2023-08-01T09:34:22;15.70;99.90
19862;DHT22;10093;48.148;8.542;2023-08-01T09:36:49;15.60;99.90
19862;DHT22;10093;48.148;8.542;2023-08-01T09:39:19;15.50;99.90
19862;DHT22;10093;48.148;8.542;2023-08-01T09:41:46;15.40;99.90
19862;DHT22;10093;48.148;8.542;2023-08-01T09:44:16;15.30;99.90
19862;DHT22;10093;48.148;8.542;2023-08-01T09:46:42;15.20;99.90
19862;DHT22;10093;48.148;8.542;2023-08-01T09:49:12;15.20;99.90
19862;DHT22;10093;48.148;8.542;2023-08-01T09:51:50;15.20;99.90
19862;DHT22;10093;48.148;8.542;2023-08-01T09:54:16;15.30;99.90
19862;DHT22;10093;48.148;8.542;2023-08-01T09:56:47;15.50;99.90
19862;DHT22;10093;48.148;8.542;2023-08-01T09:59:17;15.70;99.90
19862;DHT22;10093;48.148;8.542;2023-08-01T10:01:44;15.80;99.90
19862;DHT22;10093;48.148;8.542;2023-08-01T10:04:13;15.80;99.90
19862;DHT22;10093;48.148;8.542;2023-08-01T10:06:43;15.90;99.90
19862;DHT22;10093;48.148;8.542;2023-08-01T10:09:10;16.00;99.90
19862;DHT22;10093;48.148;8.542;2023-08-01T10:11:38;16.00;99.90
19862;DHT22;10093;48.148;8.542;2023-08-01T10:14:06;16.20;99.90
19862;DHT22;10093;48.148;8.542;2023-08-01T10:16:33;16.40;99.90
19862;DHT22;10093;48.148;8.542;2023-08-01T10:18:59;16.80;99.90
19862;DHT22;10093;48.148;8.542;2023-08-01T10:21:26;17.20;99.90
19862;DHT22;10093;48.148;8.542;2023-08-01T10:23:53;17.70;99.90
19862;DHT22;10093;48.148;8.542;2023-08-01T10:26:19;18.10;99.90
19862;DHT22;10093;48.148;8.542;2023-08-01T10:28:52;18.10;99.90
19862;DHT22;10093;48.148;8.542;2023-08-01T10:31:19;18.40;99.90
19862;DHT22;10093;48.148;8.542;2023-08-01T10:33:47;18.60;99.90
19862;DHT22;10093;48.148;8.542;2023-08-01T10:36:20;18.90;99.90
19862;DHT22;10093;48.148;8.542;2023-08-01T10:38:56;19.10;99.90
19862;DHT22;10093;48.148;8.542;2023-08-01T10:41:31;19.90;99.90
19862;DHT22;10093;48.148;8.542;2023-08-01T10:46:55;21.00;99.90
19862;DHT22;10093;48.148;8.542;2023-08-01T10:49:33;20.90;99.90
19862;DHT22;10093;48.148;8.542;2023-08-01T10:51:59;20.80;99.90
19862;DHT22;10093;48.148;8.542;2023-08-01T10:54:25;20.70;99.90
19862;DHT22;10093;48.148;8.542;2023-08-01T10:56:53;20.40;99.90
19862;DHT22;10093;48.148;8.542;2023-08-01T10:59:20;20.10;99.90
19862;DHT22;10093;48.148;8.542;2023-08-01T11:01:52;19.80;99.90
19862;DHT22;10093;48.148;8.542;2023-08-01T11:04:22;19.60;99.90
19862;DHT22;10093;48.148;8.542;2023-08-01T11:06:53;19.30;99.90
19862;DHT22;10093;48.148;8.542;2023-08-01T11:09:25;19.00;99.90
19862;DHT22;10093;48.148;8.542;2023-08-01T11:11:56;18.80;99.90
19862;DHT22;10093;48.148;8.542;2023-08-01T11:14:23;18.80;99.90
19862;DHT22;10093;48.148;8.542;2023-08-01T11:16:50;18.70;99.90
19862;DHT22;10093;48.148;8.542;2023-08-01T11:19:33;18.70;99.90
19862;DHT22;10093;48.148;8.542;2023-08-01T11:22:09;19.30;99.90
19862;DHT22;10093;48.148;8.542;2023-08-01T11:24:35;19.50;99.90
19862;DHT22;10093;48.148;8.542;2023-08-01T11:27:00;19.10;99.90
19862;DHT22;10093;48.148;8.542;2023-08-01T11:29:26;19.00;99.90
19862;DHT22;10093;48.148;8.542;2023-08-01T11:32:01;18.50;99.90
19862;DHT22;10093;48.148;8.542;2023-08-01T11:34:26;18.00;99.90
19862;DHT22;10093;48.148;8.542;2023-08-01T11:36:52;17.60;99.90
19862;DHT22;10093;48.148;8.542;2023-08-01T11:39:18;17.30;99.90
19862;DHT22;10093;48.148;8.542;2023-08-01T11:41:45;17.10;99.90
19862;DHT22;10093;48.148;8.542;2023-08-01T11:44:10;17.10;99.90
19862;DHT22;10093;48.148;8.542;2023-08-01T11:46:38;17.00;99.90
19862;DHT22;10093;48.148;8.542;2023-08-01T11:49:07;16.90;99.90
19862;DHT22;10093;48.148;8.542;2023-08-01T11:51:40;16.70;99.90
19862;DHT22;10093;48.148;8.542;2023-08-01T11:54:06;17.10;99.90
19862;DHT22;10093;48.148;8.542;2023-08-01T11:56:33;17.80;99.90
19862;DHT22;10093;48.148;8.542;2023-08-01T11:58:59;18.60;99.90
19862;DHT22;10093;48.148;8.542;2023-08-01T12:01:25;18.50;99.90
19862;DHT22;10093;48.148;8.542;2023-08-01T12:03:54;19.30;99.90
19862;DHT22;10093;48.148;8.542;2023-08-01T12:06:22;20.30;99.90
19862;DHT22;10093;48.148;8.542;2023-08-01T12:08:50;20.70;99.90
19862;DHT22;10093;48.148;8.542;2023-08-01T12:11:24;21.30;99.90
19862;DHT22;10093;48.148;8.542;2023-08-01T12:14:19;21.40;99.90
19862;DHT22;10093;48.148;8.542;2023-08-01T12:16:46;22.30;99.90
19862;DHT22;10093;48.148;8.542;2023-08-01T12:19:19;22.40;99.90
19862;DHT22;10093;48.148;8.542;2023-08-01T12:21:45;22.50;99.90
19862;DHT22;10093;48.148;8.542;2023-08-01T12:24:11;22.60;99.90
19862;DHT22;10093;48.148;8.542;2023-08-01T12:26:36;23.30;99.90
19862;DHT22;10093;48.148;8.542;2023-08-01T12:29:02;22.70;99.90
19862;DHT22;10093;48.148;8.542;2023-08-01T12:31:28;22.50;99.90
19862;DHT22;10093;48.148;8.542;2023-08-01T12:33:54;21.80;99.90
19862;DHT22;10093;48.148;8.542;2023-08-01T12:36:20;21.60;99.90
19862;DHT22;10093;48.148;8.542;2023-08-01T12:38:46;22.40;99.90
19862;DHT22;10093;48.148;8.542;2023-08-01T12:41:11;23.20;99.90
19862;DHT22;10093;48.148;8.542;2023-08-01T12:43:40;23.50;99.90
19862;DHT22;10093;48.148;8.542;2023-08-01T12:46:05;24.00;99.90
19862;DHT22;10093;48.148;8.542;2023-08-01T12:48:31;23.20;99.90
19862;DHT22;10093;48.148;8.542;2023-08-01T12:50:56;22.20;99.90
19862;DHT22;10093;48.148;8.542;2023-08-01T12:53:22;21.40;99.90
19862;DHT22;10093;48.148;8.542;2023-08-01T12:55:49;20.80;99.90
19862;DHT22;10093;48.148;8.542;2023-08-01T12:58:15;20.80;99.90
19862;DHT22;10093;48.148;8.542;2023-08-01T13:00:42;20.90;99.90
19862;DHT22;10093;48.148;8.542;2023-08-01T13:03:08;20.90;99.90
19862;DHT22;10093;48.148;8.542;2023-08-01T13:05:35;20.70;99.90
19862;DHT22;10093;48.148;8.542;2023-08-01T13:08:01;20.90;99.90
19862;DHT22;10093;48.148;8.542;2023-08-01T13:10:30;21.70;99.90
19862;DHT22;10093;48.148;8.542;2023-08-01T13:12:56;22.90;99.90
19862;DHT22;10093;48.148;8.542;2023-08-01T13:15:21;22.90;99.90
19862;DHT22;10093;48.148;8.542;2023-08-01T13:17:47;22.20;99.90
19862;DHT22;10093;48.148;8.542;2023-08-01T13:20:12;22.20;99.90
19862;DHT22;10093;48.148;8.542;2023-08-01T13:22:38;22.90;99.90
19862;DHT22;10093;48.148;8.542;2023-08-01T13:25:04;23.70;99.90
19862;DHT22;10093;48.148;8.542;2023-08-01T13:27:34;24.50;99.90
19862;DHT22;10093;48.148;8.542;2023-08-01T13:30:01;24.80;99.90
19862;DHT22;10093;48.148;8.542;2023-08-01T13:32:26;24.80;99.90
19862;DHT22;10093;48.148;8.542;2023-08-01T13:34:52;25.60;99.90
19862;DHT22;10093;48.148;8.542;2023-08-01T13:37:18;26.00;99.90
19862;DHT22;10093;48.148;8.542;2023-08-01T13:39:43;25.30;99.90
19862;DHT22;10093;48.148;8.542;2023-08-01T13:42:11;25.60;99.90
19862;DHT22;10093;48.148;8.542;2023-08-01T13:44:37;25.80;99.90
19862;DHT22;10093;48.148;8.542;2023-08-01T13:47:03;25.30;99.90
19862;DHT22;10093;48.148;8.542;2023-08-01T13:49:29;25.80;99.90
19862;DHT22;10093;48.148;8.542;2023-08-01T13:51:55;26.20;99.90
19862;DHT22;10093;48.148;8.542;2023-08-01T13:54:20;26.30;99.90
19862;DHT22;10093;48.148;8.542;2023-08-01T13:56:46;25.90;99.90
19862;DHT22;10093;48.148;8.542;2023-08-01T13:59:12;25.90;99.90
19862;DHT22;10093;48.148;8.542;2023-08-01T14:01:37;25.90;99.90
19862;DHT22;10093;48.148;8.542;2023-08-01T14:04:04;26.10;99.90
19862;DHT22;10093;48.148;8.542;2023-08-01T14:06:30;25.90;99.90
19862;DHT22;10093;48.148;8.542;2023-08-01T14:08:56;25.20;99.90
19862;DHT22;10093;48.148;8.542;2023-08-01T14:11:21;24.30;99.90
19862;DHT22;10093;48.148;8.542;2023-08-01T14:13:47;23.70;99.90
19862;DHT22;10093;48.148;8.542;2023-08-01T14:16:12;22.80;99.90
19862;DHT22;10093;48.148;8.542;2023-08-01T14:18:38;22.80;99.90
19862;DHT22;10093;48.148;8.542;2023-08-01T14:21:05;22.50;99.90
19862;DHT22;10093;48.148;8.542;2023-08-01T14:23:31;23.00;99.90
19862;DHT22;10093;48.148;8.542;2023-08-01T14:25:58;24.10;99.90
19862;DHT22;10093;48.148;8.542;2023-08-01T14:28:23;24.80;99.90
19862;DHT22;10093;48.148;8.542;2023-08-01T14:30:49;24.80;99.90
19862;DHT22;10093;48.148;8.542;2023-08-01T14:33:15;24.30;99.90
19862;DHT22;10093;48.148;8.542;2023-08-01T14:35:40;24.00;99.90
19862;DHT22;10093;48.148;8.542;2023-08-01T14:38:06;23.90;99.90
19862;DHT22;10093;48.148;8.542;2023-08-01T14:40:33;24.20;99.90
19862;DHT22;10093;48.148;8.542;2023-08-01T14:43:01;23.40;99.90
19862;DHT22;10093;48.148;8.542;2023-08-01T14:45:27;23.30;99.90
19862;DHT22;10093;48.148;8.542;2023-08-01T14:47:52;23.40;99.90
19862;DHT22;10093;48.148;8.542;2023-08-01T14:50:18;23.50;99.90
19862;DHT22;10093;48.148;8.542;2023-08-01T14:52:44;23.70;99.90
19862;DHT22;10093;48.148;8.542;2023-08-01T14:55:10;23.40;99.90
19862;DHT22;10093;48.148;8.542;2023-08-01T14:57:35;23.20;99.90
19862;DHT22;10093;48.148;8.542;2023-08-01T15:00:02;22.70;99.90
19862;DHT22;10093;48.148;8.542;2023-08-01T15:02:28;22.50;99.90
19862;DHT22;10093;48.148;8.542;2023-08-01T15:04:55;22.10;99.90
19862;DHT22;10093;48.148;8.542;2023-08-01T15:07:24;21.80;99.90
19862;DHT22;10093;48.148;8.542;2023-08-01T15:09:51;21.70;99.90
19862;DHT22;10093;48.148;8.542;2023-08-01T15:12:18;21.60;99.90
19862;DHT22;10093;48.148;8.542;2023-08-01T15:14:55;21.30;99.90
19862;DHT22;10093;48.148;8.542;2023-08-01T15:17:22;21.10;99.90
19862;DHT22;10093;48.148;8.542;2023-08-01T15:19:47;20.80;99.90
19862;DHT22;10093;48.148;8.542;2023-08-01T15:22:14;20.60;99.90
19862;DHT22;10093;48.148;8.542;2023-08-01T15:24:40;20.60;99.90
19862;DHT22;10093;48.148;8.542;2023-08-01T15:27:05;20.60;99.90
19862;DHT22;10093;48.148;8.542;2023-08-01T15:29:31;20.80;99.90